Terminal Aerodrome Forecast
Issued by NWS Bismarck, ND

Home | Current Version | Previous Version | Graphics & Text | Print | Product List | Glossary On
Versions: 1 2 3 4 5 6 7 8 9 10 11 12 13 14 15 16 17 18 19 20 21
000
FTUS43 KBIS 311134
TAFBIS
TAF
KBIS 311134Z 3112/0112 36010KT 6SM FU BKN150 OVC250
     FM311500 31016G22KT P6SM SCT150 BKN250
     FM312100 30013G20KT P6SM SCT150
     FM010100 25005KT P6SM SKC=

USA.gov is the U.S. government's official web portal to all federal, state and local government web resources and services.